Old Lyme, CT (06371)

10:46 PM EDT on May 22, 2015 (GMT -0400)
KCTLYME3 | | Change Station
CLOSE
Current Station
Personal Weather Station
Location: Lyme, CT
Elevation: 370 ft
Nearby Weather Stations

Elev 370 ft 41.40 °N, 72.29 °W | Updated 47 seconds ago

Clear
Clear
56.2 °F
Feels Like 56.2 °F
N
1.0
Wind Variable Wind from NNW
Gusts 7.0 mph

Today
High -- | Low -- °F
--% Chance of Precip.
Yesterday
High -- | Low -- °F
Precip. -- in
5:24 AM 8:07 PM
Waxing Crescent, 26% visible
Pressure 30.08 in
Visibility 10.0 miles
Clouds Clear
Dew Point 34 °F
Humidity 43%
Rainfall 0.02 in
Snow Depth Not available.
UV 0 out of 12
Pollen 9.40 out of 12
Air Quality Not available.
Flu Activity Regional
METAR KSNC 230215Z AUTO 34011G16KT 10SM CLR 14/M01 A3008 RMK AO2

More Conditions Fewer Conditions

Pressure 30.08 in
Visibility 10.0 miles
Clouds Clear
Dew Point 34 °F
Humidity 43%
Rainfall 0.02 in
Snow Depth Not available.
UV 0 out of 12
Pollen 9.40 out of 12
Air Quality Not available.
Flu Activity Regional
METAR KSNC 230215Z AUTO 34011G16KT 10SM CLR 14/M01 A3008 RMK AO2

More Conditions Fewer Conditions

10-Day Weather Forecast

Almanac

Astronomy

May. 22, 2015 Rise Set
Actual Time
Civil Twilight
Nautical Twilight
Astronomical Twilight
Moon
Length of Visible Light
Length of Day
Tomorrow will be .
, % of the Moon is Illuminated

Today's Extremes

State Highs State Lows

Community

WunderPhotos

Upload Photos

1,823,371 photos uploaded!

WunderBlogs® & News

Nearby

Air Quality

  Air Quality AQ Index Pollutant
Not available.

Snow Depth

Station Depth Elevation

Earthquake Activity

City Distance Mag. Time & Date
Minimum magnitude displayed is 2.5.

Coastal Water Temperatures

Place Temperature

Stations

Nearby Weather Stations

Station Location Temp. Windchill Dew Point Humidity Wind Precip. Elev Updated Type